createdAt,value
2023-03-15T00:08:33.576Z,81.32
2023-03-15T00:23:36.910Z,81.12
2023-03-15T00:38:41.458Z,82.01
2023-03-15T00:53:46.125Z,81.77
2023-03-15T01:08:51.584Z,81.93
2023-03-15T01:23:55.114Z,82.49
2023-03-15T01:39:00.228Z,83.43
2023-03-15T01:54:31.494Z,84.63
2023-03-15T02:09:43.903Z,86.57
2023-03-15T02:25:21.516Z,86.66
2023-03-15T02:40:28.024Z,86.47
2023-03-15T02:55:34.603Z,86.13
2023-03-15T03:10:38.003Z,85.85
2023-03-15T03:25:42.104Z,85.08
2023-03-15T03:40:46.366Z,84.27
2023-03-15T03:55:49.670Z,82.77
2023-03-15T04:10:57.572Z,81.53
2023-03-15T04:26:05.909Z,79.68
2023-03-15T04:41:20.924Z,79.04
2023-03-15T04:56:42.624Z,79.45
2023-03-15T05:12:14.992Z,79.97
2023-03-15T05:27:23.094Z,80.34
2023-03-15T05:42:44.663Z,80.33
2023-03-15T05:57:56.840Z,80.81
2023-03-15T06:13:16.637Z,79.84
2023-03-15T06:28:21.870Z,79.25
2023-03-15T06:43:29.618Z,78.09
2023-03-15T06:58:32.924Z,76.43
2023-03-15T07:13:36.091Z,75.67
2023-03-15T07:28:39.272Z,75.03
2023-03-15T07:43:42.459Z,74.12
2023-03-15T07:58:49.778Z,73.03
2023-03-15T08:13:52.979Z,71.71
2023-03-15T08:28:56.231Z,70.47
2023-03-15T08:43:59.378Z,68.81
2023-03-15T08:59:02.685Z,67.01
2023-03-15T09:14:06.004Z,66.22
2023-03-15T09:29:11.403Z,66.27
2023-03-15T09:44:18.019Z,66.58
2023-03-15T09:59:23.154Z,66.14
2023-03-15T10:14:41.536Z,65.40
2023-03-15T10:29:45.960Z,63.71
2023-03-15T10:44:49.070Z,62.82
2023-03-15T11:00:06.851Z,63.20
2023-03-15T11:15:16.348Z,63.13
2023-03-15T11:30:25.700Z,63.53
2023-03-15T11:45:53.683Z,63.68
2023-03-15T12:01:11.844Z,62.92
2023-03-15T12:16:15.119Z,61.66
2023-03-15T12:31:18.848Z,61.42
2023-03-15T12:46:58.316Z,59.90
2023-03-15T13:02:39.590Z,58.45
2023-03-15T13:17:51.845Z,57.20
2023-03-15T13:33:31.914Z,58.10
2023-03-15T13:48:37.964Z,57.84
2023-03-15T14:03:44.297Z,58.49
2023-03-15T14:18:51.529Z,57.71
2023-03-15T14:34:08.012Z,55.09
2023-03-15T14:49:28.765Z,54.30
2023-03-15T15:04:37.391Z,56.90
2023-03-15T15:19:50.611Z,59.78
2023-03-15T15:34:55.152Z,61.88
2023-03-15T15:49:59.003Z,60.28
2023-03-15T16:05:02.504Z,59.14
2023-03-15T16:20:10.321Z,57.37
2023-03-15T16:35:17.868Z,57.11
2023-03-15T16:50:21.648Z,56.86
2023-03-15T17:05:26.580Z,58.38
2023-03-15T17:20:31.162Z,59.93
2023-03-15T17:35:39.942Z,60.67
2023-03-15T17:50:45.576Z,61.80
2023-03-15T18:05:49.627Z,62.57
2023-03-15T18:20:54.557Z,63.65
2023-03-15T18:35:59.241Z,64.82
2023-03-15T18:51:03.010Z,66.05
2023-03-15T19:06:09.268Z,66.33
2023-03-15T19:21:12.940Z,66.66
2023-03-15T19:36:16.818Z,67.65
2023-03-15T19:51:21.289Z,67.69
2023-03-15T20:06:25.554Z,68.04
2023-03-15T20:21:30.383Z,68.78
2023-03-15T20:36:35.359Z,68.99
2023-03-15T20:51:38.942Z,68.42
2023-03-15T21:06:42.704Z,68.24
2023-03-15T21:21:46.491Z,67.71
2023-03-15T21:36:50.046Z,67.80
2023-03-15T21:51:53.390Z,67.28
2023-03-15T22:06:56.486Z,67.28
2023-03-15T22:21:59.850Z,67.62
2023-03-15T22:37:03.837Z,67.82
2023-03-15T22:52:07.370Z,68.47
2023-03-15T23:07:10.613Z,68.64
2023-03-15T23:22:13.835Z,68.55
2023-03-15T23:37:17.694Z,68.59
2023-03-15T23:52:25.444Z,68.51
